Time,TemperatureF,DewpointF,PressureIn,WindDirection,WindDirectionDegrees,WindSpeedMPH,WindSpeedGustMPH,Humidity,HourlyPrecipIn,Conditions,Clouds,dailyrainin,SolarRadiationWatts/m^2,SoftwareType,DateUTC
2013-01-11 00:02:00,73.0,57.0,-100.00,North,352,21.0,32.0,58,0.00,,,0.00,0.000000,,2013-01-11 10:02:00,
2013-01-11 00:12:00,73.0,57.0,-100.00,North,352,21.0,32.0,58,0.00,,,0.00,0.000000,,2013-01-11 10:12:00,
2013-01-11 00:22:00,73.0,57.0,-100.00,North,352,21.0,32.0,58,0.00,,,0.00,0.000000,,2013-01-11 10:22:00,
2013-01-11 00:32:00,73.0,57.0,-100.00,North,352,21.0,32.0,58,0.00,,,0.00,0.000000,,2013-01-11 10:32:00,
2013-01-11 00:42:00,73.0,57.0,-100.00,North,352,21.0,32.0,58,0.00,,,0.00,0.000000,,2013-01-11 10:42:00,
2013-01-11 01:02:00,73.0,56.0,-100.00,NNW,347,26.0,37.0,55,0.00,,,0.00,0.000000,,2013-01-11 11:02:00,
2013-01-11 01:12:00,73.0,56.0,-100.00,NNW,347,26.0,37.0,55,0.00,,,0.00,0.000000,,2013-01-11 11:12:00,
2013-01-11 01:22:00,73.0,56.0,-100.00,NNW,347,26.0,37.0,55,0.00,,,0.00,0.000000,,2013-01-11 11:22:00,
2013-01-11 01:32:00,73.0,56.0,-100.00,NNW,347,26.0,37.0,55,0.00,,,0.00,0.000000,,2013-01-11 11:32:00,
2013-01-11 01:42:00,73.0,56.0,-100.00,NNW,347,26.0,37.0,55,0.00,,,0.00,0.000000,,2013-01-11 11:42:00,
2013-01-11 02:02:00,72.0,57.0,-100.00,NNW,345,25.0,39.0,59,0.00,,,0.00,0.000000,,2013-01-11 12:02:00,
2013-01-11 02:12:00,72.0,57.0,-100.00,NNW,345,25.0,39.0,59,0.00,,,0.00,0.000000,,2013-01-11 12:12:00,
2013-01-11 02:22:00,72.0,57.0,-100.00,NNW,345,25.0,39.0,59,0.00,,,0.00,0.000000,,2013-01-11 12:22:00,
2013-01-11 02:32:00,72.0,57.0,-100.00,NNW,345,25.0,39.0,59,0.00,,,0.00,0.000000,,2013-01-11 12:32:00,
2013-01-11 02:42:00,72.0,57.0,-100.00,NNW,345,25.0,39.0,59,0.00,,,0.00,0.000000,,2013-01-11 12:42:00,
2013-01-11 03:02:00,72.0,58.0,-100.00,NNW,343,24.0,37.0,61,0.00,,,-99.99,0.000000,,2013-01-11 13:02:00,
2013-01-11 03:12:00,72.0,58.0,-100.00,NNW,343,24.0,37.0,61,0.00,,,-99.99,0.000000,,2013-01-11 13:12:00,
2013-01-11 03:22:00,72.0,58.0,-100.00,NNW,343,24.0,37.0,61,0.00,,,-99.99,0.000000,,2013-01-11 13:22:00,
2013-01-11 03:32:00,72.0,58.0,-100.00,NNW,343,24.0,37.0,61,0.00,,,-99.99,0.000000,,2013-01-11 13:32:00,
2013-01-11 03:42:00,72.0,58.0,-100.00,NNW,343,24.0,37.0,61,0.00,,,-99.99,0.000000,,2013-01-11 13:42:00,
2013-01-11 04:03:00,72.0,58.0,-100.00,NNW,342,27.0,40.0,61,0.00,,,0.00,0.000000,,2013-01-11 14:03:00,
2013-01-11 04:12:00,72.0,58.0,-100.00,NNW,342,27.0,40.0,61,0.00,,,0.00,0.000000,,2013-01-11 14:12:00,
2013-01-11 04:22:00,72.0,58.0,-100.00,NNW,342,27.0,40.0,61,0.00,,,0.00,0.000000,,2013-01-11 14:22:00,
2013-01-11 04:33:00,72.0,58.0,-100.00,NNW,342,27.0,40.0,61,0.00,,,0.00,0.000000,,2013-01-11 14:33:00,
2013-01-11 04:42:00,72.0,58.0,-100.00,NNW,342,27.0,40.0,61,0.00,,,0.00,0.000000,,2013-01-11 14:42:00,
2013-01-11 05:03:00,72.0,57.0,-100.00,NNW,342,27.0,40.0,60,0.00,,,0.00,0.000000,,2013-01-11 15:03:00,
2013-01-11 05:12:00,72.0,57.0,-100.00,NNW,342,27.0,40.0,60,0.00,,,0.00,0.000000,,2013-01-11 15:12:00,
2013-01-11 05:23:00,72.0,57.0,-100.00,NNW,342,27.0,40.0,60,0.00,,,0.00,0.000000,,2013-01-11 15:23:00,
2013-01-11 05:32:00,72.0,57.0,-100.00,NNW,342,27.0,40.0,60,0.00,,,0.00,0.000000,,2013-01-11 15:32:00,
2013-01-11 05:42:00,72.0,57.0,-100.00,NNW,342,27.0,40.0,60,0.00,,,0.00,0.000000,,2013-01-11 15:42:00,
2013-01-11 06:12:00,71.0,56.0,-100.00,NNW,341,25.0,46.0,60,0.00,,,0.00,0.000000,,2013-01-11 16:12:00,
2013-01-11 06:22:00,71.0,56.0,-100.00,NNW,341,25.0,46.0,60,0.00,,,0.00,0.000000,,2013-01-11 16:22:00,
2013-01-11 06:32:00,71.0,56.0,-100.00,NNW,341,25.0,46.0,60,0.00,,,0.00,0.000000,,2013-01-11 16:32:00,
2013-01-11 06:42:00,71.0,56.0,-100.00,NNW,341,25.0,46.0,60,0.00,,,0.00,0.000000,,2013-01-11 16:42:00,
2013-01-11 07:03:00,73.0,57.0,-100.00,NNW,344,23.0,39.0,57,0.00,,,0.00,0.000000,,2013-01-11 17:03:00,
2013-01-11 07:12:00,73.0,57.0,-100.00,NNW,344,23.0,39.0,57,0.00,,,0.00,0.000000,,2013-01-11 17:12:00,
2013-01-11 07:22:00,73.0,57.0,-100.00,NNW,344,23.0,39.0,57,0.00,,,0.00,0.000000,,2013-01-11 17:22:00,
2013-01-11 07:33:00,73.0,57.0,-100.00,NNW,344,23.0,39.0,57,0.00,,,0.00,0.000000,,2013-01-11 17:33:00,
2013-01-11 07:42:00,73.0,57.0,-100.00,NNW,344,23.0,39.0,57,0.00,,,0.00,0.000000,,2013-01-11 17:42:00,
2013-01-11 08:03:00,76.0,56.0,-100.00,NNW,344,22.0,35.0,50,0.00,,,0.00,47.000000,,2013-01-11 18:03:00,
2013-01-11 08:12:00,76.0,56.0,-100.00,NNW,344,22.0,35.0,50,0.00,,,0.00,47.000000,,2013-01-11 18:12:00,
2013-01-11 08:23:00,76.0,56.0,-100.00,NNW,344,22.0,35.0,50,0.00,,,0.00,47.000000,,2013-01-11 18:23:00,
2013-01-11 08:32:00,76.0,56.0,-100.00,NNW,344,22.0,35.0,50,0.00,,,0.00,47.000000,,2013-01-11 18:32:00,
2013-01-11 08:42:00,76.0,56.0,-100.00,NNW,344,22.0,35.0,50,0.00,,,0.00,47.000000,,2013-01-11 18:42:00,
2013-01-11 09:02:00,78.0,54.0,-100.00,NNW,336,14.0,31.0,44,0.00,,,0.00,278.000000,,2013-01-11 19:02:00,
2013-01-11 09:12:00,78.0,54.0,-100.00,NNW,336,14.0,31.0,44,0.00,,,0.00,278.000000,,2013-01-11 19:12:00,
2013-01-11 09:22:00,78.0,54.0,-100.00,NNW,336,14.0,31.0,44,0.00,,,0.00,278.000000,,2013-01-11 19:22:00,
2013-01-11 09:32:00,78.0,54.0,-100.00,NNW,336,14.0,31.0,44,0.00,,,0.00,278.000000,,2013-01-11 19:32:00,
2013-01-11 09:42:00,78.0,54.0,-100.00,NNW,336,14.0,31.0,44,0.00,,,0.00,278.000000,,2013-01-11 19:42:00,
2013-01-11 10:02:00,80.0,59.0,-100.00,SW,225,7.0,24.0,48,0.00,,,0.00,509.000000,,2013-01-11 20:02:00,
2013-01-11 10:12:00,80.0,59.0,-100.00,SW,225,7.0,24.0,48,0.00,,,0.00,509.000000,,2013-01-11 20:12:00,
2013-01-11 10:22:00,80.0,59.0,-100.00,SW,225,7.0,24.0,48,0.00,,,0.00,509.000000,,2013-01-11 20:22:00,
2013-01-11 10:32:00,80.0,59.0,-100.00,SW,225,7.0,24.0,48,0.00,,,0.00,509.000000,,2013-01-11 20:32:00,
2013-01-11 10:42:00,80.0,59.0,-100.00,SW,225,7.0,24.0,48,0.00,,,0.00,509.000000,,2013-01-11 20:42:00,
2013-01-11 11:03:00,82.0,62.0,-100.00,SSW,211,10.0,15.0,51,0.00,,,0.00,702.000000,,2013-01-11 21:03:00,
2013-01-11 11:12:00,82.0,62.0,-100.00,SSW,211,10.0,15.0,51,0.00,,,0.00,702.000000,,2013-01-11 21:12:00,
2013-01-11 11:22:00,82.0,62.0,-100.00,SSW,211,10.0,15.0,51,0.00,,,0.00,702.000000,,2013-01-11 21:22:00,
2013-01-11 11:32:00,82.0,62.0,-100.00,SSW,211,10.0,15.0,51,0.00,,,0.00,702.000000,,2013-01-11 21:32:00,
2013-01-11 11:42:00,82.0,62.0,-100.00,SSW,211,10.0,15.0,51,0.00,,,0.00,702.000000,,2013-01-11 21:42:00,
2013-01-11 12:02:00,80.0,63.0,-100.00,SSW,200,8.0,14.0,57,0.00,,,0.00,835.000000,,2013-01-11 22:02:00,
2013-01-11 12:12:00,80.0,63.0,-100.00,SSW,200,8.0,14.0,57,0.00,,,0.00,835.000000,,2013-01-11 22:12:00,
2013-01-11 12:22:00,80.0,63.0,-100.00,SSW,200,8.0,14.0,57,0.00,,,0.00,835.000000,,2013-01-11 22:22:00,
2013-01-11 12:32:00,80.0,63.0,-100.00,SSW,200,8.0,14.0,57,0.00,,,0.00,835.000000,,2013-01-11 22:32:00,
2013-01-11 12:42:00,80.0,63.0,-100.00,SSW,200,8.0,14.0,57,0.00,,,0.00,835.000000,,2013-01-11 22:42:00,
2013-01-11 13:02:00,83.0,63.0,-100.00,SSW,197,6.0,11.0,51,0.00,,,0.00,891.000000,,2013-01-11 23:02:00,
2013-01-11 13:12:00,83.0,63.0,-100.00,SSW,197,6.0,11.0,51,0.00,,,0.00,891.000000,,2013-01-11 23:12:00,
2013-01-11 13:22:00,83.0,63.0,-100.00,SSW,197,6.0,11.0,51,0.00,,,0.00,891.000000,,2013-01-11 23:22:00,
2013-01-11 13:32:00,83.0,63.0,-100.00,SSW,197,6.0,11.0,51,0.00,,,0.00,891.000000,,2013-01-11 23:32:00,
2013-01-11 13:42:00,83.0,63.0,-100.00,SSW,197,6.0,11.0,51,0.00,,,0.00,891.000000,,2013-01-11 23:42:00,
2013-01-11 14:02:00,84.0,61.0,-100.00,SSW,211,10.0,14.0,46,0.00,,,0.00,880.000000,,2013-01-12 00:02:00,
2013-01-11 14:12:00,84.0,61.0,-100.00,SSW,211,10.0,14.0,46,0.00,,,0.00,880.000000,,2013-01-12 00:12:00,
2013-01-11 14:22:00,84.0,61.0,-100.00,SSW,211,10.0,14.0,46,0.00,,,0.00,880.000000,,2013-01-12 00:22:00,
2013-01-11 14:32:00,84.0,61.0,-100.00,SSW,211,10.0,14.0,46,0.00,,,0.00,880.000000,,2013-01-12 00:32:00,
2013-01-11 14:42:00,84.0,61.0,-100.00,SSW,211,10.0,14.0,46,0.00,,,0.00,880.000000,,2013-01-12 00:42:00,
2013-01-11 15:02:00,81.0,62.0,-100.00,SSW,203,8.0,14.0,52,0.00,,,0.00,781.000000,,2013-01-12 01:02:00,
2013-01-11 15:12:00,81.0,62.0,-100.00,SSW,203,8.0,14.0,52,0.00,,,0.00,781.000000,,2013-01-12 01:12:00,
2013-01-11 15:22:00,81.0,62.0,-100.00,SSW,203,8.0,14.0,52,0.00,,,0.00,781.000000,,2013-01-12 01:22:00,
2013-01-11 15:32:00,81.0,62.0,-100.00,SSW,203,8.0,14.0,52,0.00,,,0.00,781.000000,,2013-01-12 01:32:00,
2013-01-11 15:42:00,81.0,62.0,-100.00,SSW,203,8.0,14.0,52,0.00,,,0.00,781.000000,,2013-01-12 01:42:00,
2013-01-11 16:12:00,80.0,61.0,-100.00,South,188,9.0,11.0,52,0.00,,,0.00,623.000000,,2013-01-12 02:12:00,
2013-01-11 16:22:00,80.0,61.0,-100.00,South,188,9.0,11.0,52,0.00,,,0.00,623.000000,,2013-01-12 02:22:00,
2013-01-11 16:32:00,80.0,61.0,-100.00,South,188,9.0,11.0,52,0.00,,,0.00,623.000000,,2013-01-12 02:32:00,
2013-01-11 16:42:00,80.0,61.0,-100.00,South,188,9.0,11.0,52,0.00,,,0.00,623.000000,,2013-01-12 02:42:00,
2013-01-11 17:02:00,78.0,63.0,-100.00,SSW,204,7.0,12.0,60,0.00,,,0.00,313.000000,,2013-01-12 03:02:00,
2013-01-11 17:12:00,78.0,63.0,-100.00,SSW,204,7.0,12.0,60,0.00,,,0.00,313.000000,,2013-01-12 03:12:00,
2013-01-11 17:22:00,78.0,63.0,-100.00,SSW,204,7.0,12.0,60,0.00,,,0.00,313.000000,,2013-01-12 03:22:00,
2013-01-11 17:32:00,78.0,63.0,-100.00,SSW,204,7.0,12.0,60,0.00,,,0.00,313.000000,,2013-01-12 03:32:00,
2013-01-11 17:42:00,78.0,63.0,-100.00,SSW,204,7.0,12.0,60,0.00,,,0.00,313.000000,,2013-01-12 03:42:00,
2013-01-11 18:02:00,77.0,61.0,-100.00,NNW,337,10.0,22.0,58,0.00,,,0.00,110.000000,,2013-01-12 04:02:00,
2013-01-11 18:12:00,77.0,61.0,-100.00,NNW,337,10.0,22.0,58,0.00,,,0.00,110.000000,,2013-01-12 04:12:00,
2013-01-11 18:22:00,77.0,61.0,-100.00,NNW,337,10.0,22.0,58,0.00,,,0.00,110.000000,,2013-01-12 04:22:00,
2013-01-11 18:32:00,77.0,61.0,-100.00,NNW,337,10.0,22.0,58,0.00,,,0.00,110.000000,,2013-01-12 04:32:00,
2013-01-11 18:42:00,77.0,61.0,-100.00,NNW,337,10.0,22.0,58,0.00,,,0.00,110.000000,,2013-01-12 04:42:00,
2013-01-11 19:12:00,75.0,56.0,-100.00,NNW,340,13.0,18.0,51,0.00,,,0.00,3.000000,,2013-01-12 05:12:00,
2013-01-11 19:22:00,75.0,56.0,-100.00,NNW,340,13.0,18.0,51,0.00,,,0.00,3.000000,,2013-01-12 05:22:00,
2013-01-11 19:32:00,75.0,56.0,-100.00,NNW,340,13.0,18.0,51,0.00,,,0.00,3.000000,,2013-01-12 05:32:00,
2013-01-11 19:42:00,75.0,56.0,-100.00,NNW,340,13.0,18.0,51,0.00,,,0.00,3.000000,,2013-01-12 05:42:00,
2013-01-11 20:02:00,75.0,55.0,-100.00,NW,317,4.0,26.0,50,0.00,,,0.00,0.000000,,2013-01-12 06:02:00,
2013-01-11 20:12:00,75.0,55.0,-100.00,NW,317,4.0,26.0,50,0.00,,,0.00,0.000000,,2013-01-12 06:12:00,
2013-01-11 20:22:00,75.0,55.0,-100.00,NW,317,4.0,26.0,50,0.00,,,0.00,0.000000,,2013-01-12 06:22:00,
2013-01-11 20:32:00,75.0,55.0,-100.00,NW,317,4.0,26.0,50,0.00,,,0.00,0.000000,,2013-01-12 06:32:00,
2013-01-11 20:42:00,75.0,55.0,-100.00,NW,317,4.0,26.0,50,0.00,,,0.00,0.000000,,2013-01-12 06:42:00,
2013-01-11 21:02:00,74.0,60.0,-100.00,West,268,0.0,8.0,61,0.00,,,0.00,0.000000,,2013-01-12 07:02:00,
2013-01-11 21:12:00,74.0,60.0,-100.00,West,268,0.0,8.0,61,0.00,,,0.00,0.000000,,2013-01-12 07:12:00,
2013-01-11 21:22:00,74.0,60.0,-100.00,West,268,0.0,8.0,61,0.00,,,0.00,0.000000,,2013-01-12 07:22:00,
2013-01-11 21:32:00,74.0,60.0,-100.00,West,268,0.0,8.0,61,0.00,,,0.00,0.000000,,2013-01-12 07:32:00,
2013-01-11 21:42:00,74.0,60.0,-100.00,West,268,0.0,8.0,61,0.00,,,0.00,0.000000,,2013-01-12 07:42:00,
2013-01-11 22:02:00,72.0,59.0,-100.00,ENE,73,4.0,7.0,64,0.00,,,0.00,0.000000,,2013-01-12 08:02:00,
2013-01-11 22:11:00,72.0,59.0,-100.00,ENE,73,4.0,7.0,64,0.00,,,0.00,0.000000,,2013-01-12 08:11:00,
2013-01-11 22:22:00,72.0,59.0,-100.00,ENE,73,4.0,7.0,64,0.00,,,0.00,0.000000,,2013-01-12 08:22:00,
2013-01-11 22:32:00,72.0,59.0,-100.00,ENE,73,4.0,7.0,64,0.00,,,0.00,0.000000,,2013-01-12 08:32:00,
2013-01-11 22:42:00,72.0,59.0,-100.00,ENE,73,4.0,7.0,64,0.00,,,0.00,0.000000,,2013-01-12 08:42:00,
2013-01-11 23:02:00,74.0,61.0,-100.00,NNE,24,5.0,7.0,65,0.00,,,0.00,0.000000,,2013-01-12 09:02:00,
2013-01-11 23:12:00,74.0,61.0,-100.00,NNE,24,5.0,7.0,65,0.00,,,0.00,0.000000,,2013-01-12 09:12:00,
2013-01-11 23:22:00,74.0,61.0,-100.00,NNE,24,5.0,7.0,65,0.00,,,0.00,0.000000,,2013-01-12 09:22:00,
2013-01-11 23:32:00,74.0,61.0,-100.00,NNE,24,5.0,7.0,65,0.00,,,0.00,0.000000,,2013-01-12 09:32:00,
2013-01-11 23:42:00,74.0,61.0,-100.00,NNE,24,5.0,7.0,65,0.00,,,0.00,0.000000,,2013-01-12 09:42:00,